Terminal Aerodrome Forecast
Issued by NWS Quad Cities IA IL

Home | Current Version | Previous Version | Text Only | Print | Product List | Glossary On
Versions: 1 2 3 4 5 6 7 8 9 10 11 12 13 14 15 16 17 18 19 20 21 22 23 24 25 26 27 28 29 30
000
FTUS43 KDVN 212330
TAFDBQ
TAF
KDBQ 212330Z 2200/2224 17014G22KT P6SM SCT100 BKN200
     FM220200 17013G20KT P6SM SCT100 BKN200
     FM220600 17012KT P6SM SCT100 BKN200 WS020/20040KT
     FM221500 19014G20KT P6SM VCSH SCT030 BKN050
     FM222000 18010KT 6SM -SHRA VCTS BKN025CB OVC040=

USA.gov is the U.S. government's official web portal to all federal, state and local government web resources and services.